^^
Meteo Knjazevac Station Historical Data
Daily Summary for June 5, 2021 Units:  Metric    English   Both
Daily Weekly Monthly Yearly Custom
  High: Low: Average:
Temperature: 12.4 °C 8.8 °C 10 °C
Dew Point: 10.8 °C 8.2 °C 9.2 °C
Humidity: 98% 90% 95%
Wind Speed: 3.2km/h 0km/h 1.9km/h
Wind Gust: 8km/h - -
Wind- - WNW
Pressure: 1025.6 hPa 1024.9 hPa -
Precipitation: 0 mm    
Historical Graphs
 
 
Tabular Data for June 5, 2021
Time Temperature Dew Point Pressure Wind Wind Speed Wind Gust Humidity Rainfall Rate (Hourly) solar Conditions
00:00 12.4 °C 10.8 °C 1025.6 hPa WSW 1.6 km/h 6.4 km/h 90% 0 mm 0 W/m2
00:10 12.1 °C 10.5 °C 1025.6 hPa West 1.6 km/h 6.4 km/h 90% 0 mm 0 W/m2
00:20 11.9 °C 10.5 °C 1025.6 hPa West 1.6 km/h 6.4 km/h 91% 0 mm 0 W/m2
00:30 11.9 °C 10.5 °C 1025.6 hPa Calm   3.2 km/h 91% 0 mm 0 W/m2
00:40 11.8 °C 10.4 °C 1025.3 hPa Calm   3.2 km/h 91% 0 mm 0 W/m2
00:50 11.7 °C 10.6 °C 1025.3 hPa Calm   3.2 km/h 93% 0 mm 0 W/m2
01:00 11.5 °C 10.4 °C 1025.3 hPa Calm   3.2 km/h 93% 0 mm 0 W/m2
01:10 11.2 °C 9.8 °C 1025.3 hPa WSW 3.2 km/h 4.8 km/h 91% 0 mm 0 W/m2
01:20 11 °C 9.9 °C 1025.3 hPa NW 1.6 km/h 4.8 km/h 93% 0 mm 0 W/m2
01:30 10.8 °C 9.7 °C 1025.3 hPa Calm   4.8 km/h 93% 0 mm 0 W/m2
01:40 10.6 °C 9.5 °C 1025.3 hPa West 1.6 km/h 3.2 km/h 93% 0 mm 0 W/m2
01:50 10.4 °C 9.5 °C 1025.3 hPa NW 1.6 km/h 3.2 km/h 94% 0 mm 0 W/m2
02:00 10.3 °C 9.4 °C 1025.3 hPa Calm   4.8 km/h 94% 0 mm 0 W/m2
02:10 10.1 °C 9.2 °C 1025.3 hPa West 3.2 km/h 3.2 km/h 94% 0 mm 0 W/m2
02:20 10 °C 9.1 °C 1025.3 hPa WSW 1.6 km/h 3.2 km/h 94% 0 mm 0 W/m2
02:30 9.7 °C 8.8 °C 1025.3 hPa Calm   3.2 km/h 94% 0 mm 0 W/m2
02:40 9.7 °C 8.9 °C 1025.3 hPa West 3.2 km/h 4.8 km/h 95% 0 mm 0 W/m2
02:50 9.7 °C 8.9 °C 1025.3 hPa NW 3.2 km/h 4.8 km/h 95% 0 mm 0 W/m2
03:00 9.6 °C 8.8 °C 1025.3 hPa West 3.2 km/h 4.8 km/h 95% 0 mm 0 W/m2
03:10 9.5 °C 8.7 °C 1025.3 hPa WNW 3.2 km/h 6.4 km/h 95% 0 mm 0 W/m2
03:20 9.6 °C 9 °C 1025.3 hPa WNW 1.6 km/h 4.8 km/h 96% 0 mm 0 W/m2
03:30 9.5 °C 8.7 °C 1025.3 hPa NW 3.2 km/h 4.8 km/h 95% 0 mm 0 W/m2
03:40 9.4 °C 8.7 °C 1025.3 hPa NW 1.6 km/h 4.8 km/h 95% 0 mm 0 W/m2
03:50 9.3 °C 8.6 °C 1025.3 hPa NW 3.2 km/h 3.2 km/h 95% 0 mm 0 W/m2
04:00 9.2 °C 8.4 °C 1025.3 hPa WNW 3.2 km/h 4.8 km/h 95% 0 mm 0 W/m2
04:10 9.2 °C 8.6 °C 1025.3 hPa WNW 3.2 km/h 4.8 km/h 96% 0 mm 0 W/m2
04:20 9.1 °C 8.5 °C 1025.3 hPa West 3.2 km/h 6.4 km/h 96% 0 mm 0 W/m2
04:30 9.1 °C 8.5 °C 1025.3 hPa Calm   4.8 km/h 96% 0 mm 0 W/m2
04:40 9.1 °C 8.8 °C 1025.3 hPa West 3.2 km/h 4.8 km/h 98% 0 mm 0 W/m2
04:50 9 °C 8.4 °C 1025.3 hPa WNW 3.2 km/h 4.8 km/h 96% 0 mm 3 W/m2
05:00 9.1 °C 8.8 °C 1025.3 hPa West 3.2 km/h 4.8 km/h 98% 0 mm 7 W/m2
05:10 8.9 °C 8.6 °C 1025.3 hPa West 3.2 km/h 6.4 km/h 98% 0 mm 15 W/m2
05:20 9 °C 8.7 °C 1024.9 hPa West 1.6 km/h 4.8 km/h 98% 0 mm 23 W/m2
05:30 8.8 °C 8.2 °C 1024.9 hPa West 3.2 km/h 8 km/h 96% 0 mm 31 W/m2
05:40 8.8 °C 8.5 °C 1024.9 hPa WNW 1.6 km/h 8 km/h 98% 0 mm 38 W/m2
05:50 8.8 °C 8.5 °C 1024.9 hPa West 3.2 km/h 4.8 km/h 98% 0 mm 45 W/m2
06:00 8.8 °C 8.5 °C 1024.9 hPa NW 1.6 km/h 6.4 km/h 98% 0 mm 51 W/m2
Knjazevac, Serbia
Compliments of Weather Underground - 2 mb